createdAt,value
2023-01-26T00:01:28.823Z,61.42
2023-01-26T00:03:56.732Z,61.29
2023-01-26T00:06:23.735Z,61.34
2023-01-26T00:08:52.527Z,61.44
2023-01-26T00:11:26.334Z,61.22
2023-01-26T00:13:54.000Z,61.26
2023-01-26T00:16:21.149Z,61.28
2023-01-26T00:18:48.393Z,60.87
2023-01-26T00:21:20.360Z,61.00
2023-01-26T00:23:47.803Z,60.83
2023-01-26T00:26:16.801Z,60.99
2023-01-26T00:28:44.463Z,61.21
2023-01-26T00:31:13.540Z,61.14
2023-01-26T00:33:41.938Z,61.05
2023-01-26T00:36:10.735Z,61.28
2023-01-26T00:38:38.183Z,61.31
2023-01-26T00:41:05.433Z,61.27
2023-01-26T00:43:32.588Z,61.29
2023-01-26T00:45:59.524Z,61.44
2023-01-26T00:48:26.982Z,61.49
2023-01-26T00:50:54.132Z,61.41
2023-01-26T00:53:21.282Z,61.36
2023-01-26T00:55:48.372Z,61.18
2023-01-26T00:58:15.578Z,61.17
2023-01-26T22:59:46.959Z,75.25
2023-01-26T23:02:14.139Z,71.40
2023-01-26T23:04:41.093Z,70.55
2023-01-26T23:07:07.929Z,70.01
2023-01-26T23:09:39.238Z,69.70
2023-01-26T23:12:06.791Z,69.32
2023-01-26T23:14:34.044Z,68.96
2023-01-26T23:17:01.000Z,68.60
2023-01-26T23:19:29.675Z,68.24
2023-01-26T23:21:56.925Z,67.99
2023-01-26T23:24:23.947Z,67.75
2023-01-26T23:26:51.022Z,67.51
2023-01-26T23:29:17.997Z,67.15
2023-01-26T23:31:45.178Z,66.92
2023-01-26T23:34:12.263Z,66.70
2023-01-26T23:36:39.516Z,66.59
2023-01-26T23:39:06.666Z,66.45
2023-01-26T23:41:34.331Z,66.17
2023-01-26T23:44:01.277Z,66.08
2023-01-26T23:46:28.454Z,66.14
2023-01-26T23:48:55.702Z,65.97
2023-01-26T23:51:22.820Z,65.77
2023-01-26T23:53:49.768Z,65.89
2023-01-26T23:56:17.238Z,65.90
2023-01-26T23:58:45.290Z,65.95
